Time;durP1;ratioP1;P1;durP2;ratioP2;P2;SDS_P1;SDS_P2;PMS_P1;PMS_P2;Temp;Humidity;BMP_temperature;BMP_pressure;BME280_temperature;BME280_humidity;BME280_pressure;Samples;Min_cycle;Max_cycle;Signal;HPM_P1;HPM_P2
2021/04/21 00:00:43;;;;;;;11.25;7.93;;;;;;;7.59;63.33;94620.69;2983293;39;20067;-72
2021/04/21 00:02:49;;;;;;;12.30;7.78;;;;;;;7.62;63.17;94616.97;2987877;39;20086;-71
2021/04/21 00:04:51;;;;;;;12.20;7.57;;;;;;;7.59;63.47;94612.03;2981788;39;20059;-72
2021/04/21 00:06:52;;;;;;;10.38;7.68;;;;;;;7.67;63.44;94612.13;2982631;39;20048;-71
2021/04/21 00:08:54;;;;;;;12.27;7.93;;;;;;;7.69;62.90;94609.38;2982914;39;20112;-71
2021/04/21 00:10:58;;;;;;;11.52;7.03;;;;;;;7.77;62.53;94612.91;2979113;39;20568;-71
2021/04/21 00:13:00;;;;;;;11.45;7.68;;;;;;;7.76;62.82;94611.25;2980140;39;20052;-70
2021/04/21 00:15:03;;;;;;;11.52;7.43;;;;;;;7.92;61.99;94609.84;2983568;39;20055;-71
2021/04/21 00:17:06;;;;;;;13.80;7.30;;;;;;;8.04;61.67;94619.09;2967137;39;20093;-71
2021/04/21 00:19:10;;;;;;;14.35;7.57;;;;;;;8.13;61.59;94604.34;2977579;39;20087;-71
2021/04/21 00:21:13;;;;;;;9.82;6.95;;;;;;;8.26;61.54;94601.41;2979586;39;20495;-71
2021/04/21 00:23:14;;;;;;;11.52;7.65;;;;;;;8.38;60.78;94605.44;2989453;39;20051;-71
2021/04/21 00:25:15;;;;;;;12.98;7.78;;;;;;;8.46;60.26;94600.34;2982196;39;20047;-70
2021/04/21 00:27:23;;;;;;;12.32;7.80;;;;;;;8.54;59.81;94600.44;2982050;39;20048;-69
2021/04/21 00:29:25;;;;;;;10.68;8.07;;;;;;;8.64;59.42;94602.94;2985607;39;20569;-73
2021/04/21 00:31:26;;;;;;;11.77;8.05;;;;;;;8.69;58.76;94603.34;2979564;39;20480;-69
2021/04/21 00:33:28;;;;;;;11.55;7.57;;;;;;;8.74;59.15;94610.72;2976382;39;20114;-72
2021/04/21 00:35:35;;;;;;;12.35;7.80;;;;;;;8.78;58.45;94602.44;2974747;39;20413;-72
2021/04/21 00:37:36;;;;;;;12.25;7.43;;;;;;;8.82;58.90;94605.56;2975628;39;20048;-72
2021/04/21 00:39:41;;;;;;;11.07;7.05;;;;;;;8.85;58.30;94607.88;2982450;39;20051;-71
2021/04/21 00:41:42;;;;;;;10.65;7.05;;;;;;;8.88;58.09;94607.56;2986757;39;20060;-71
2021/04/21 00:44:05;;;;;;;12.13;7.85;;;;;;;8.83;58.60;94604.59;2987440;39;20055;-69
2021/04/21 00:46:13;;;;;;;12.93;7.15;;;;;;;8.55;59.13;94616.91;2984702;39;20063;-72
2021/04/21 00:48:31;;;;;;;9.32;6.30;;;;;;;8.42;59.37;94606.81;2974686;39;20173;-70
2021/04/21 00:50:42;;;;;;;9.05;6.25;;;;;;;8.47;59.23;94609.81;2987229;39;20080;-71
2021/04/21 00:52:59;;;;;;;8.60;6.38;;;;;;;8.57;59.70;94609.75;2985710;39;20113;-71
2021/04/21 00:55:27;;;;;;;9.88;6.85;;;;;;;8.66;59.08;94614.06;2982397;39;20400;-71
2021/04/21 00:57:32;;;;;;;10.02;7.07;;;;;;;8.75;58.97;94614.97;2979985;39;20486;-71
2021/04/21 00:59:56;;;;;;;10.20;6.85;;;;;;;8.78;59.22;94612.06;2975108;39;20118;-70
2021/04/21 01:01:57;;;;;;;10.52;6.85;;;;;;;8.80;59.20;94607.50;2991304;39;20050;-71
2021/04/21 01:04:00;;;;;;;10.82;6.93;;;;;;;8.81;59.62;94612.56;2973837;39;20084;-71
2021/04/21 01:06:05;;;;;;;11.50;7.53;;;;;;;8.85;59.88;94614.91;2975322;39;20417;-71
2021/04/21 01:08:09;;;;;;;9.48;6.38;;;;;;;8.88;59.52;94615.38;2974479;39;20081;-72
2021/04/21 01:10:12;;;;;;;10.10;7.05;;;;;;;8.90;59.75;94608.22;2978653;39;20067;-72
2021/04/21 01:12:15;;;;;;;10.57;7.40;;;;;;;8.92;59.40;94608.91;2986475;39;20050;-71
2021/04/21 01:14:20;;;;;;;;;;;;;;;8.95;59.54;94608.63;2985498;39;20055;-71
2021/04/21 01:16:24;;;;;;;11.25;7.85;;;;;;;8.95;59.51;94607.81;2982721;39;20052;-72
2021/04/21 01:18:27;;;;;;;11.55;7.80;;;;;;;8.96;59.56;94607.63;2992405;39;20059;-72
2021/04/21 01:20:41;;;;;;;10.75;7.82;;;;;;;8.98;59.44;94608.28;2976937;39;20365;-70
2021/04/21 01:22:42;;;;;;;12.05;8.55;;;;;;;8.97;59.80;94611.06;2975493;39;20056;-71
2021/04/21 01:25:03;;;;;;;10.43;7.75;;;;;;;8.97;60.45;94616.28;2986773;39;20131;-71
2021/04/21 01:27:18;;;;;;;12.20;8.50;;;;;;;8.95;60.57;94619.06;2979046;39;20071;-70
2021/04/21 01:29:29;;;;;;;12.18;7.85;;;;;;;8.95;60.59;94611.22;2993985;39;20067;-72
2021/04/21 01:31:46;;;;;;;13.63;9.10;;;;;;;8.94;60.61;94612.19;2992872;39;20094;-71
2021/04/21 01:33:51;;;;;;;13.18;9.18;;;;;;;8.87;60.81;94612.94;2977650;39;20055;-72
2021/04/21 01:36:03;;;;;;;15.45;8.82;;;;;;;8.82;60.87;94611.59;2990607;39;20047;-70
2021/04/21 01:38:05;;;;;;;12.80;9.10;;;;;;;8.81;60.77;94611.75;2985741;39;20207;-71
2021/04/21 01:40:10;;;;;;;12.63;9.07;;;;;;;8.83;60.33;94620.25;2974496;39;20048;-70
2021/04/21 01:42:13;;;;;;;12.23;7.97;;;;;;;8.84;61.22;94613.22;2980092;39;20080;-72
2021/04/21 01:44:40;;;;;;;12.48;8.48;;;;;;;8.86;60.73;94611.28;2982395;39;20331;-72
2021/04/21 01:46:44;;;;;;;11.82;7.07;;;;;;;8.71;59.04;94611.00;2990011;39;20455;-71
2021/04/21 01:48:47;;;;;;;10.82;7.10;;;;;;;8.45;60.51;94611.75;2982169;39;20132;-72
2021/04/21 01:50:49;;;;;;;10.70;6.50;;;;;;;8.36;60.55;94617.81;2985004;39;20056;-71
2021/04/21 01:53:23;;;;;;;11.53;6.80;;;;;;;8.33;60.64;94613.72;2984016;39;20047;-72
2021/04/21 01:55:35;;;;;;;11.32;6.35;;;;;;;8.27;61.00;94614.31;2992408;39;20090;-72
2021/04/21 01:57:41;;;;;;;11.10;6.63;;;;;;;8.18;61.47;94618.63;2974466;39;20056;-71
2021/04/21 01:59:49;;;;;;;14.55;7.03;;;;;;;7.96;61.96;94625.06;2993222;39;20086;-72
2021/04/21 02:01:55;;;;;;;10.82;7.15;;;;;;;7.90;61.97;94625.63;2974785;39;20077;-76
2021/04/21 02:04:09;;;;;;;11.52;6.82;;;;;;;7.74;62.68;94628.88;2983219;39;20055;-70
2021/04/21 02:06:16;;;;;;;10.65;7.32;;;;;;;7.75;63.45;94627.88;2981932;39;20054;-71
2021/04/21 02:08:29;;;;;;;11.20;7.38;;;;;;;7.87;62.96;94622.47;2992989;39;20094;-71
2021/04/21 02:10:51;;;;;;;13.00;7.50;;;;;;;7.88;63.01;94631.97;2982268;39;20096;-71
2021/04/21 02:13:15;;;;;;;11.15;7.53;;;;;;;7.63;63.75;94626.41;2992631;39;20078;-72
2021/04/21 02:15:37;;;;;;;11.40;7.82;;;;;;;7.67;64.33;94626.97;2978375;39;20416;-72
2021/04/21 02:17:52;;;;;;;15.43;8.10;;;;;;;7.87;63.44;94628.53;2983753;39;20068;-71
2021/04/21 02:20:39;;;;;;;12.60;7.10;;;;;;;8.05;63.28;94625.97;2986758;39;20483;-70
2021/04/21 02:22:43;;;;;;;11.18;7.20;;;;;;;8.19;62.12;94632.47;2981706;39;20107;-71
2021/04/21 02:24:58;;;;;;;11.60;7.35;;;;;;;8.21;62.47;94620.09;2983783;39;20351;-73
2021/04/21 02:27:03;;;;;;;10.02;6.57;;;;;;;8.30;61.86;94629.69;2988093;39;20086;-71
2021/04/21 02:29:24;;;;;;;10.50;6.22;;;;;;;8.32;62.18;94629.53;2994408;39;20075;-85
2021/04/21 02:31:34;;;;;;;10.35;7.57;;;;;;;8.19;62.94;94632.47;2981163;39;20351;-83
2021/04/21 02:34:13;;;;;;;11.15;6.55;;;;;;;8.17;62.73;94637.03;2980141;39;20158;-83
2021/04/21 02:36:31;;;;;;;11.07;6.80;;;;;;;8.24;62.07;94642.47;2996385;39;20035;-83
2021/04/21 02:38:43;;;;;;;8.82;6.15;;;;;;;8.03;62.29;94640.13;2989272;39;20038;-83
2021/04/21 02:40:54;;;;;;;11.07;6.82;;;;;;;7.94;62.76;94641.81;2981746;39;20130;-84
2021/04/21 02:43:22;;;;;;;9.73;6.60;;;;;;;7.90;63.06;94643.06;2989665;39;20059;-85
2021/04/21 02:45:53;;;;;;;9.15;5.78;;;;;;;7.68;63.04;94645.09;2998900;39;20072;-85
2021/04/21 02:48:31;;;;;;;10.38;6.50;;;;;;;7.47;63.46;94647.88;2988143;39;20132;-83
2021/04/21 02:50:39;;;;;;;9.63;6.60;;;;;;;7.28;64.23;94646.13;3005249;39;20079;-84
2021/04/21 02:52:40;;;;;;;12.65;6.82;;;;;;;7.24;64.47;94652.59;2989010;39;20435;-84
2021/04/21 02:54:59;;;;;;;11.15;7.13;;;;;;;7.29;64.46;94647.78;2997019;39;20063;-83
2021/04/21 02:57:06;;;;;;;11.77;7.10;;;;;;;7.40;64.65;94646.81;2978861;40;20043;-82
2021/04/21 02:59:13;;;;;;;13.73;7.05;;;;;;;7.49;64.23;94650.34;2986435;39;20078;-72
2021/04/21 03:01:26;;;;;;;12.18;6.38;;;;;;;7.47;64.49;94654.88;2986335;39;20077;-72
2021/04/21 03:03:31;;;;;;;8.77;6.10;;;;;;;7.65;63.92;94650.56;2992750;39;20071;-72
2021/04/21 03:05:34;;;;;;;8.25;6.10;;;;;;;7.75;63.87;94651.34;2983844;39;20444;-72
2021/04/21 03:07:49;;;;;;;8.70;6.30;;;;;;;7.76;63.80;94650.38;2981515;39;20063;-70
2021/04/21 03:09:54;;;;;;;10.65;6.10;;;;;;;7.83;63.62;94645.44;2982898;39;20043;-72
2021/04/21 03:11:57;;;;;;;8.05;6.15;;;;;;;7.95;63.27;94641.66;2975375;39;20064;-71
2021/04/21 03:14:13;;;;;;;9.30;6.43;;;;;;;8.04;62.90;94645.19;2989853;39;20146;-85
2021/04/21 03:16:16;;;;;;;10.05;6.05;;;;;;;8.13;62.04;94639.13;2996205;39;20159;-85
2021/04/21 03:18:21;;;;;;;7.93;5.70;;;;;;;8.18;61.96;94647.31;2995656;39;20214;-84
2021/04/21 03:20:24;;;;;;;10.73;5.75;;;;;;;8.19;61.75;94646.38;2998392;39;20119;-83
2021/04/21 03:22:27;;;;;;;11.60;6.82;;;;;;;8.24;61.95;94655.53;2988371;39;20452;-86
2021/04/21 03:24:30;;;;;;;9.18;6.43;;;;;;;7.80;62.51;94654.34;2988032;39;20039;-85
2021/04/21 03:26:32;;;;;;;;;;;;;;;7.57;63.88;94647.84;2988012;39;20038;-85
2021/04/21 03:28:34;;;;;;;11.73;7.80;;;;;;;7.58;64.15;94650.31;2979725;40;19936;-85
2021/04/21 03:30:36;;;;;;;10.60;6.70;;;;;;;7.38;64.73;94654.75;2991220;39;20106;-83
2021/04/21 03:32:40;;;;;;;11.40;8.05;;;;;;;7.31;65.02;94664.13;2991906;39;20413;-85
2021/04/21 03:34:41;;;;;;;;;;;;;;;7.13;65.77;94666.59;2987413;39;20079;-83
2021/04/21 03:36:43;;;;;;;13.00;7.75;;;;;;;6.95;66.02;94669.06;2978035;39;19958;-84
2021/04/21 03:38:46;;;;;;;13.23;8.07;;;;;;;7.13;65.99;94663.16;3001782;39;20067;-86
2021/04/21 03:40:48;;;;;;;12.32;7.82;;;;;;;7.22;65.53;94651.91;2987995;39;20444;-86
2021/04/21 03:42:50;;;;;;;12.07;7.55;;;;;;;7.38;65.14;94664.38;2990368;39;20035;-83
2021/04/21 03:44:51;;;;;;;25.48;7.65;;;;;;;7.36;65.57;94661.91;2982252;40;20053;-85
2021/04/21 03:46:53;;;;;;;11.18;7.45;;;;;;;7.27;65.51;94665.34;2979130;39;20024;-85
2021/04/21 03:48:55;;;;;;;13.00;8.98;;;;;;;7.26;65.75;94662.88;2978787;39;20435;-84
2021/04/21 03:50:57;;;;;;;11.85;7.65;;;;;;;7.17;66.19;94667.13;2979044;40;20075;-84
2021/04/21 03:53:08;;;;;;;14.70;8.13;;;;;;;7.11;66.61;94675.50;2987934;39;20417;-86
2021/04/21 03:55:11;;;;;;;15.07;8.80;;;;;;;7.20;65.98;94671.25;2998467;39;20055;-86
2021/04/21 03:57:13;;;;;;;12.45;7.88;;;;;;;7.28;65.18;94677.41;2990009;39;20074;-84
2021/04/21 03:59:15;;;;;;;11.43;7.45;;;;;;;7.20;65.57;94673.84;2988683;39;20154;-85
2021/04/21 04:01:18;;;;;;;15.23;10.90;;;;;;;7.15;65.38;94676.88;2995559;39;20083;-84
2021/04/21 04:03:23;;;;;;;17.63;12.27;;;;;;;7.13;65.69;94671.78;2997126;39;20027;-84
2021/04/21 04:06:06;;;;;;;18.00;13.48;;;;;;;7.39;64.59;94676.44;2987977;39;20401;-85
2021/04/21 04:08:11;;;;;;;20.33;13.75;;;;;;;7.59;64.28;94685.03;2972374;39;20055;-86
2021/04/21 04:10:14;;;;;;;20.42;13.70;;;;;;;7.63;64.34;94685.56;2998605;39;20343;-85
2021/04/21 04:12:15;;;;;;;20.42;13.10;;;;;;;7.79;63.84;94691.03;2995928;39;20047;-85
2021/04/21 04:14:26;;;;;;;19.17;13.18;;;;;;;8.01;63.42;94695.06;2995366;39;20063;-90
2021/04/21 04:16:28;;;;;;;15.70;10.90;;;;;;;8.12;62.72;94691.44;3004945;39;20247;-71
2021/04/21 04:18:29;;;;;;;13.75;9.65;;;;;;;8.09;62.45;94689.13;2982896;39;20076;-72
2021/04/21 04:20:33;;;;;;;15.18;9.90;;;;;;;8.18;62.75;94688.25;2977929;39;20047;-72
2021/04/21 04:22:35;;;;;;;13.63;9.90;;;;;;;8.29;62.25;94692.47;2982839;39;20059;-73
2021/04/21 04:24:56;;;;;;;14.30;9.75;;;;;;;8.33;62.52;94691.22;2991536;39;20049;-73
2021/04/21 04:26:59;;;;;;;14.30;9.48;;;;;;;7.87;64.41;94695.50;2975405;39;20059;-71
2021/04/21 04:29:01;;;;;;;14.18;9.80;;;;;;;7.39;66.43;94700.69;2980774;39;20356;-72
2021/04/21 04:31:04;;;;;;;15.35;10.35;;;;;;;7.11;67.90;94712.78;2979407;39;20057;-72
2021/04/21 04:33:06;;;;;;;15.13;10.57;;;;;;;7.17;68.12;94717.44;2984587;39;20452;-72
2021/04/21 04:35:09;;;;;;;16.55;10.57;;;;;;;7.03;68.83;94722.25;2985220;39;20160;-71
2021/04/21 04:37:16;;;;;;;14.63;9.15;;;;;;;6.87;69.55;94717.59;2982611;39;20083;-71
2021/04/21 04:39:17;;;;;;;14.27;10.13;;;;;;;6.84;70.25;94712.63;2990699;39;20047;-72
2021/04/21 04:41:19;;;;;;;13.25;8.82;;;;;;;6.92;70.18;94716.22;2991556;39;20047;-72
2021/04/21 04:43:21;;;;;;;16.60;8.75;;;;;;;6.86;70.54;94721.13;2977592;39;20091;-71
2021/04/21 04:45:28;;;;;;;13.15;8.98;;;;;;;6.97;70.20;94715.81;2982439;39;20051;-72
2021/04/21 04:47:30;;;;;;;13.63;9.13;;;;;;;6.79;70.86;94735.66;2989896;39;20043;-71
2021/04/21 04:49:39;;;;;;;11.63;8.00;;;;;;;6.71;71.16;94738.94;2973893;39;20055;-72
2021/04/21 04:51:45;;;;;;;12.18;8.40;;;;;;;6.85;71.25;94729.94;2978530;39;20100;-72
2021/04/21 04:53:46;;;;;;;16.02;8.93;;;;;;;6.98;70.84;94725.28;2978750;39;20122;-71
2021/04/21 04:55:48;;;;;;;13.05;8.40;;;;;;;7.07;70.45;94732.25;2983369;39;20075;-72
2021/04/21 04:57:51;;;;;;;12.77;8.52;;;;;;;7.14;70.12;94735.13;2982795;39;20059;-73
2021/04/21 04:59:52;;;;;;;14.13;8.10;;;;;;;7.13;69.76;94736.91;2981411;39;20091;-72
2021/04/21 05:01:58;;;;;;;21.02;8.80;;;;;;;7.16;70.25;94738.44;2978492;39;20208;-72
2021/04/21 05:04:00;;;;;;;13.98;8.27;;;;;;;7.25;69.83;94736.78;2982679;39;20043;-73
2021/04/21 05:06:03;;;;;;;17.73;9.80;;;;;;;7.10;69.99;94739.00;2989454;39;20059;-73
2021/04/21 05:08:11;;;;;;;15.13;9.57;;;;;;;7.23;70.33;94739.53;2981951;39;20417;-71
2021/04/21 05:10:26;;;;;;;14.25;10.10;;;;;;;7.48;69.46;94743.34;2989921;39;20083;-74
2021/04/21 05:12:28;;;;;;;23.35;13.80;;;;;;;7.75;68.71;94742.63;2989247;39;20071;-72
2021/04/21 05:14:31;;;;;;;19.38;10.75;;;;;;;8.02;67.77;94740.22;2982478;39;20124;-72
2021/04/21 05:17:12;;;;;;;17.23;10.17;;;;;;;8.17;67.52;94738.78;2987632;39;20055;-88
2021/04/21 05:19:29;;;;;;;22.42;11.98;;;;;;;7.89;67.18;94745.75;2971522;39;20300;-86
2021/04/21 05:21:33;;;;;;;17.63;9.98;;;;;;;7.88;68.19;94744.94;2997216;39;20066;-86
2021/04/21 05:23:53;;;;;;;15.57;9.88;;;;;;;8.05;67.92;94751.19;2997787;39;20055;-89
2021/04/21 05:26:35;;;;;;;12.38;9.25;;;;;;;8.12;67.26;94752.28;2987814;39;20073;-73
2021/04/21 05:28:45;;;;;;;13.10;9.30;;;;;;;8.06;67.30;94758.06;2990160;39;20135;-71
2021/04/21 05:31:08;;;;;;;10.65;8.18;;;;;;;7.79;68.39;94749.22;2994897;39;20238;-73
2021/04/21 05:33:47;;;;;;;12.38;7.88;;;;;;;7.61;67.96;94756.09;2991769;39;20059;-71
2021/04/21 05:36:07;;;;;;;12.85;8.35;;;;;;;7.70;68.35;94757.88;2988283;39;20342;-71
2021/04/21 05:38:38;;;;;;;15.18;8.23;;;;;;;7.89;67.66;94745.75;2980364;39;20361;-73
2021/04/21 05:41:06;;;;;;;14.77;8.10;;;;;;;8.01;67.49;94757.66;2986576;39;20086;-72
2021/04/21 05:43:28;;;;;;;11.18;8.55;;;;;;;8.03;66.74;94757.53;2982104;39;20047;-76
2021/04/21 05:46:04;;;;;;;16.42;8.82;;;;;;;7.96;66.98;94767.72;2986563;39;20058;-73
2021/04/21 05:48:32;;;;;;;13.85;8.80;;;;;;;7.76;67.13;94759.91;2978825;39;20052;-72
2021/04/21 05:51:11;;;;;;;11.20;8.52;;;;;;;7.91;66.81;94765.50;2982925;39;20349;-72
2021/04/21 05:53:30;;;;;;;10.75;7.40;;;;;;;7.87;66.27;94771.16;2981946;39;20047;-86
2021/04/21 05:55:53;;;;;;;12.65;7.53;;;;;;;7.93;66.26;94760.16;2986568;39;20075;-86
2021/04/21 05:58:13;;;;;;;11.10;7.53;;;;;;;8.09;66.03;94767.41;2987678;39;20121;-86
2021/04/21 06:00:39;;;;;;;10.35;7.30;;;;;;;8.29;65.08;94768.97;2991375;39;20032;-86
2021/04/21 06:02:41;;;;;;;12.50;8.50;;;;;;;8.27;65.26;94776.13;2986794;40;20025;-89
2021/04/21 06:04:42;;;;;;;13.98;7.63;;;;;;;8.14;65.55;94779.03;2983375;39;20027;-87
2021/04/21 06:06:43;;;;;;;12.02;7.80;;;;;;;8.16;64.93;94774.50;2988352;39;20080;-85
2021/04/21 06:08:45;;;;;;;10.82;7.95;;;;;;;8.45;64.47;94778.81;2988764;39;20044;-87
2021/04/21 06:10:47;;;;;;;13.20;9.98;;;;;;;8.46;64.30;94771.84;2988434;39;20039;-87
2021/04/21 06:13:00;;;;;;;16.45;9.10;;;;;;;8.71;64.11;94780.75;2987746;39;20043;-87
2021/04/21 06:15:02;;;;;;;13.67;9.30;;;;;;;8.88;62.89;94779.16;2982226;40;20092;-89
2021/04/21 06:17:04;;;;;;;12.52;8.13;;;;;;;8.85;62.87;94784.69;2986095;39;20301;-87
2021/04/21 06:19:07;;;;;;;14.07;8.80;;;;;;;8.81;63.38;94781.53;2980347;39;20032;-87
2021/04/21 06:21:16;;;;;;;16.48;8.50;;;;;;;9.06;62.93;94784.44;2979992;40;20076;-87
2021/04/21 06:23:26;;;;;;;11.90;7.88;;;;;;;9.10;61.92;94785.75;2985370;39;20039;-88
2021/04/21 06:25:27;;;;;;;12.95;7.38;;;;;;;9.15;61.15;94781.75;2993516;39;20036;-87
2021/04/21 06:27:31;;;;;;;13.77;7.32;;;;;;;9.32;61.15;94790.56;2995530;39;20319;-88
2021/04/21 06:29:32;;;;;;;12.88;7.05;;;;;;;9.40;60.72;94780.19;2980501;39;20040;-86
2021/04/21 06:31:43;;;;;;;10.55;6.72;;;;;;;9.46;60.66;94783.16;2980280;40;20436;-86
2021/04/21 06:33:47;;;;;;;10.15;7.15;;;;;;;9.61;60.29;94785.13;2988312;39;20028;-86
2021/04/21 06:35:49;;;;;;;10.57;6.82;;;;;;;9.31;60.75;94783.69;2987992;39;20071;-87
2021/04/21 06:37:50;;;;;;;10.23;6.43;;;;;;;9.14;61.21;94784.50;2989432;39;20071;-84
2021/04/21 06:39:51;;;;;;;12.20;6.18;;;;;;;9.07;61.16;94791.28;2989905;39;20062;-87
2021/04/21 06:42:01;;;;;;;8.60;6.65;;;;;;;9.08;61.06;94790.31;2990111;39;20127;-88
2021/04/21 06:44:04;;;;;;;10.32;6.50;;;;;;;9.14;60.91;94782.72;2985756;39;20028;-86
2021/04/21 06:46:10;;;;;;;9.80;6.60;;;;;;;9.25;61.58;94781.69;2990176;39;20369;-86
2021/04/21 06:48:11;;;;;;;11.23;7.13;;;;;;;9.42;61.16;94793.94;2997096;39;20051;-87
2021/04/21 06:50:16;;;;;;;11.10;6.35;;;;;;;9.57;60.44;94785.53;2990063;39;20032;-86
2021/04/21 06:52:18;;;;;;;13.43;5.75;;;;;;;9.37;60.89;94790.94;2989843;39;20043;-87
2021/04/21 06:54:21;;;;;;;14.95;6.80;;;;;;;9.63;60.73;94790.19;2977688;39;20117;-72
2021/04/21 06:56:30;;;;;;;11.15;6.85;;;;;;;9.67;59.94;94788.91;2974286;39;20048;-73
2021/04/21 06:58:33;;;;;;;12.48;6.82;;;;;;;9.91;59.56;94782.22;2973539;39;20427;-72
2021/04/21 07:00:35;;;;;;;11.80;7.63;;;;;;;10.01;59.47;94783.75;2971551;39;20052;-73
2021/04/21 07:02:45;;;;;;;10.27;6.40;;;;;;;10.06;59.08;94785.91;2976014;39;20051;-73
2021/04/21 07:05:24;;;;;;;13.98;6.28;;;;;;;10.15;59.54;94790.25;2974879;39;20138;-72
2021/04/21 07:07:26;;;;;;;10.00;6.85;;;;;;;10.00;58.44;94791.75;2973404;39;20084;-75
2021/04/21 07:09:28;;;;;;;8.20;6.07;;;;;;;9.72;58.66;94796.28;2976281;39;20056;-73
2021/04/21 07:11:29;;;;;;;10.77;6.50;;;;;;;9.55;59.22;94795.34;2967254;40;20047;-73
2021/04/21 07:13:31;;;;;;;9.32;6.47;;;;;;;10.01;57.54;94793.41;2974898;39;20266;-74
2021/04/21 07:15:33;;;;;;;8.93;5.60;;;;;;;10.34;57.92;94791.03;2973177;39;20048;-73
2021/04/21 07:17:34;;;;;;;9.68;6.20;;;;;;;10.39;56.61;94794.84;2970297;39;20408;-74
2021/04/21 07:19:36;;;;;;;9.73;6.40;;;;;;;10.18;57.97;94795.16;2971398;39;20040;-72
2021/04/21 07:21:40;;;;;;;15.75;6.32;;;;;;;10.21;57.10;94800.06;2969789;39;20384;-72
2021/04/21 07:23:45;;;;;;;15.38;8.27;;;;;;;10.11;57.93;94794.16;2973537;39;20056;-73
2021/04/21 07:25:48;;;;;;;13.65;7.63;;;;;;;10.62;57.12;94799.50;2974914;39;20056;-73
2021/04/21 07:27:54;;;;;;;11.38;6.40;;;;;;;11.06;55.66;94794.94;2972765;40;20489;-72
2021/04/21 07:29:55;;;;;;;15.02;8.00;;;;;;;10.62;55.39;94800.31;2974581;39;20047;-72
2021/04/21 07:31:57;;;;;;;9.02;6.95;;;;;;;10.81;55.66;94803.69;2977772;39;20063;-73
2021/04/21 07:33:59;;;;;;;12.65;6.93;;;;;;;10.94;54.97;94798.00;2965363;40;20060;-73
2021/04/21 07:36:23;;;;;;;7.43;5.53;;;;;;;11.18;53.20;94802.50;2972286;39;20089;-72
2021/04/21 07:38:25;;;;;;;6.07;4.63;;;;;;;10.74;53.58;94805.31;2971578;39;20137;-73
2021/04/21 07:40:35;;;;;;;9.05;5.30;;;;;;;10.38;55.30;94801.03;2973403;39;20047;-72
2021/04/21 07:42:36;;;;;;;9.30;5.50;;;;;;;10.62;54.50;94802.94;2974056;39;20321;-72
2021/04/21 07:45:11;;;;;;;6.75;4.53;;;;;;;10.65;53.80;94804.47;2972372;39;20052;-73
2021/04/21 07:47:05;;;;;;;8.93;4.90;;;;;;;10.63;54.39;94803.78;2974568;39;20048;-73
2021/04/21 07:49:07;;;;;;;11.63;5.13;;;;;;;10.62;53.96;94804.75;2987341;39;20138;-72
2021/04/21 07:51:15;;;;;;;8.55;5.55;;;;;;;10.63;54.95;94802.00;2991905;39;20073;-73
2021/04/21 07:53:16;;;;;;;7.47;4.35;;;;;;;10.24;53.13;94804.22;2979319;39;20091;-73
2021/04/21 07:55:21;;;;;;;8.32;4.90;;;;;;;9.94;54.69;94805.47;2973918;39;20137;-73
2021/04/21 07:57:25;;;;;;;8.57;5.15;;;;;;;10.21;55.08;94801.88;2981647;39;20055;-73
2021/04/21 07:59:34;;;;;;;8.70;6.13;;;;;;;10.60;54.75;94806.72;2992211;39;20100;-72
2021/04/21 08:01:35;;;;;;;8.63;6.07;;;;;;;10.81;53.67;94806.31;2988291;39;20047;-73
2021/04/21 08:03:39;;;;;;;9.55;5.28;;;;;;;10.88;54.00;94806.50;2974617;39;20145;-73
2021/04/21 08:05:54;;;;;;;6.50;4.80;;;;;;;11.21;52.81;94802.19;2981509;39;20112;-72
2021/04/21 08:07:56;;;;;;;6.15;4.47;;;;;;;10.87;52.28;94808.31;2974550;39;20036;-73
2021/04/21 08:09:59;;;;;;;11.97;5.90;;;;;;;10.90;52.54;94802.75;2981010;39;20060;-71
2021/04/21 08:12:14;;;;;;;6.90;4.47;;;;;;;11.41;51.38;94814.03;2982795;39;20097;-73
2021/04/21 08:14:39;;;;;;;4.75;3.97;;;;;;;11.79;49.96;94814.41;2990812;39;20082;-70
2021/04/21 08:16:40;;;;;;;3.92;3.25;;;;;;;12.00;48.33;94802.63;2992982;39;20050;-72
2021/04/21 08:18:41;;;;;;;5.28;3.53;;;;;;;12.19;47.52;94802.25;2989656;39;20420;-74
2021/04/21 08:20:51;;;;;;;7.93;3.80;;;;;;;12.29;48.07;94800.28;2974015;39;20056;-72
2021/04/21 08:23:04;;;;;;;5.53;3.40;;;;;;;12.47;47.32;94801.88;2991991;39;20412;-73
2021/04/21 08:25:06;;;;;;;10.13;6.03;;;;;;;12.35;48.63;94796.19;2989775;39;20043;-72
2021/04/21 08:27:09;;;;;;;6.57;4.60;;;;;;;11.73;48.60;94807.19;2992286;39;20250;-73
2021/04/21 08:29:12;;;;;;;4.95;3.90;;;;;;;11.25;51.09;94808.78;2978158;39;20257;-73
2021/04/21 08:31:23;;;;;;;5.28;3.60;;;;;;;11.24;49.69;94813.16;2983082;39;20474;-73
2021/04/21 08:33:30;;;;;;;5.85;3.60;;;;;;;11.14;49.04;94820.38;2978522;39;20071;-73
2021/04/21 08:35:32;;;;;;;7.28;3.00;;;;;;;11.20;48.60;94816.28;2979100;39;20044;-72
2021/04/21 08:37:33;;;;;;;5.43;3.25;;;;;;;11.37;48.69;94815.34;2992357;39;20354;-73
2021/04/21 08:39:34;;;;;;;5.85;3.05;;;;;;;11.43;47.62;94811.25;2995056;39;20050;-73
2021/04/21 08:41:41;;;;;;;4.03;3.03;;;;;;;11.55;47.47;94806.50;2992016;39;20530;-72
2021/04/21 08:43:46;;;;;;;5.05;3.47;;;;;;;11.54;47.25;94807.50;2978603;39;20417;-73
2021/04/21 08:45:48;;;;;;;4.28;3.20;;;;;;;11.70;46.99;94807.50;2990733;39;20065;-71
2021/04/21 08:47:49;;;;;;;3.63;2.95;;;;;;;11.85;46.25;94805.03;2975265;39;20100;-72
2021/04/21 08:49:55;;;;;;;5.70;3.10;;;;;;;12.14;45.67;94791.44;2986860;39;20055;-87
2021/04/21 08:51:59;;;;;;;4.30;3.10;;;;;;;12.29;45.49;94797.66;3006610;39;20034;-87
2021/04/21 08:54:06;;;;;;;4.53;2.78;;;;;;;12.60;44.38;94785.59;3005486;39;20303;-88
2021/04/21 08:56:08;;;;;;;4.03;2.53;;;;;;;12.88;44.20;94784.19;2998703;39;20072;-86
2021/04/21 08:58:10;;;;;;;3.63;2.53;;;;;;;13.13;42.80;94783.25;2992545;39;20055;-86
2021/04/21 09:00:16;;;;;;;3.05;2.45;;;;;;;13.51;42.24;94773.69;2996834;39;20035;-86
2021/04/21 09:02:18;;;;;;;3.03;2.53;;;;;;;13.90;41.76;94778.00;2997264;39;20067;-86
2021/04/21 09:04:19;;;;;;;3.15;2.30;;;;;;;14.09;40.65;94769.59;2989893;39;20036;-87
2021/04/21 09:06:22;;;;;;;3.03;2.25;;;;;;;13.51;40.17;94774.50;2981065;39;20044;-86
2021/04/21 09:08:26;;;;;;;4.90;2.83;;;;;;;13.19;41.16;94772.03;2995904;39;20357;-85
2021/04/21 09:10:27;;;;;;;4.03;2.85;;;;;;;13.23;41.82;94776.78;2997139;39;20047;-88
2021/04/21 09:12:28;;;;;;;3.53;2.50;;;;;;;13.23;42.24;94770.72;2988140;39;20094;-87
2021/04/21 09:14:29;;;;;;;3.75;2.60;;;;;;;13.25;42.28;94773.94;2997158;39;20060;-89
2021/04/21 09:16:31;;;;;;;5.28;2.90;;;;;;;13.24;41.97;94767.88;3005197;39;20312;-87
2021/04/21 09:18:35;;;;;;;4.55;2.53;;;;;;;13.36;41.72;94767.50;2990322;39;20092;-87
2021/04/21 09:20:44;;;;;;;4.63;2.40;;;;;;;12.95;42.01;94770.34;2983572;39;20080;-86
2021/04/21 09:23:07;;;;;;;6.03;2.70;;;;;;;12.69;41.23;94766.16;2987407;39;20404;-87
2021/04/21 09:25:08;;;;;;;3.08;2.22;;;;;;;12.65;41.34;94770.16;2978823;40;20044;-87
2021/04/21 09:27:23;;;;;;;3.30;2.13;;;;;;;12.77;40.38;94766.13;2984115;39;20048;-86
2021/04/21 09:29:27;;;;;;;3.05;2.08;;;;;;;12.85;39.94;94767.94;2981390;39;20036;-85
2021/04/21 09:31:30;;;;;;;3.17;2.28;;;;;;;12.92;39.84;94771.50;2972727;40;20049;-85
2021/04/21 09:33:31;;;;;;;5.68;3.28;;;;;;;12.31;42.74;94770.41;2998392;39;20048;-85
2021/04/21 09:35:43;;;;;;;8.10;3.90;;;;;;;11.87;45.32;94782.06;2974440;39;20439;-85
2021/04/21 09:37:44;;;;;;;7.35;4.55;;;;;;;11.94;46.26;94783.09;2995265;39;20121;-88
2021/04/21 09:39:46;;;;;;;6.20;4.47;;;;;;;11.57;47.92;94794.03;2997651;39;20333;-86
2021/04/21 09:41:49;;;;;;;6.90;4.80;;;;;;;11.63;48.49;94807.31;2979645;40;20425;-89
2021/04/21 09:43:51;;;;;;;;;;;;;;;11.33;48.69;94821.88;2997145;39;20031;-86
2021/04/21 09:45:57;;;;;;;6.15;3.15;;;;;;;11.23;48.17;94821.22;2988727;39;20331;-88
2021/04/21 09:48:09;;;;;;;3.00;1.73;;;;;;;11.15;46.70;94815.94;2983126;39;20040;-86
2021/04/21 09:50:11;;;;;;;3.65;2.28;;;;;;;10.76;48.31;94819.09;2981070;40;20092;-89
2021/04/21 09:52:13;;;;;;;5.97;1.90;;;;;;;10.83;48.16;94825.31;2981122;39;20055;-74
2021/04/21 09:54:27;;;;;;;4.70;2.38;;;;;;;10.76;49.33;94825.13;2986273;39;20063;-73
2021/04/21 09:56:48;;;;;;;2.47;1.48;;;;;;;10.71;50.26;94831.81;2992602;39;20300;-71
2021/04/21 09:58:52;;;;;;;2.50;1.70;;;;;;;10.69;51.50;94839.84;2983626;39;20351;-73
2021/04/21 10:00:53;;;;;;;2.28;1.42;;;;;;;10.69;54.29;94836.38;2983271;39;20132;-72
2021/04/21 10:02:55;;;;;;;2.63;1.60;;;;;;;10.79;54.99;94834.47;2992969;39;20093;-73